Time;durP1;ratioP1;P1;durP2;ratioP2;P2;SDS_P1;SDS_P2;PMS_P1;PMS_P2;Temp;Humidity;BMP_temperature;BMP_pressure;BME280_temperature;BME280_humidity;BME280_pressure;Samples;Min_cycle;Max_cycle;Signal;HPM_P1;HPM_P2
2022/10/10 05:03:46;;;;;;;12.70;7.78;;;11.10;99.90;;;;;;6163766;23;20056;-76
2022/10/10 05:06:12;;;;;;;12.63;7.50;;;11.10;99.90;;;;;;6165097;23;20187;-77
2022/10/10 05:08:38;;;;;;;14.68;9.13;;;11.20;99.90;;;;;;6189161;23;20183;-79
2022/10/10 05:11:04;;;;;;;13.40;8.50;;;11.20;99.90;;;;;;6141263;23;20064;-76
2022/10/10 05:13:30;;;;;;;11.50;7.40;;;11.20;99.90;;;;;;6193198;23;20028;-77
2022/10/10 05:15:56;;;;;;;12.57;7.22;;;11.20;99.90;;;;;;6165494;23;20064;-74
2022/10/10 05:18:21;;;;;;;16.27;7.50;;;11.20;99.90;;;;;;6164641;23;20002;-76
2022/10/10 05:20:47;;;;;;;12.25;7.25;;;11.30;99.90;;;;;;6165270;23;20054;-76
2022/10/10 05:23:14;;;;;;;14.52;7.90;;;11.30;99.90;;;;;;6165252;23;20009;-74
2022/10/10 05:25:43;;;;;;;11.00;7.50;;;11.30;99.90;;;;;;6163887;23;20029;-77
2022/10/10 05:28:08;;;;;;;12.98;7.22;;;11.30;99.90;;;;;;6165147;23;20009;-75
2022/10/10 05:30:34;;;;;;;12.48;8.00;;;11.30;99.90;;;;;;6187996;23;20041;-75
2022/10/10 05:33:00;;;;;;;13.55;7.28;;;11.30;99.90;;;;;;6164912;23;20201;-75
2022/10/10 05:35:25;;;;;;;12.73;7.60;;;11.40;99.90;;;;;;6188299;23;20006;-77
2022/10/10 05:37:51;;;;;;;11.68;7.10;;;11.40;99.90;;;;;;6164793;23;20057;-76
2022/10/10 05:40:17;;;;;;;15.73;11.13;;;11.40;99.90;;;;;;6164411;23;19993;-78
2022/10/10 05:42:43;;;;;;;15.27;9.98;;;11.40;99.90;;;;;;6165150;23;19998;-76
2022/10/10 05:45:09;;;;;;;11.70;7.93;;;11.40;99.90;;;;;;6164820;23;20004;-77
2022/10/10 05:47:35;;;;;;;11.55;7.10;;;11.40;99.90;;;;;;6138573;23;20481;-76
2022/10/10 05:50:01;;;;;;;11.25;7.00;;;11.40;99.90;;;;;;6165104;23;20012;-76
2022/10/10 05:52:28;;;;;;;10.30;6.95;;;11.50;99.90;;;;;;6187657;23;20080;-76
2022/10/10 05:54:53;;;;;;;12.45;7.10;;;11.50;99.90;;;;;;6164912;23;20002;-76
2022/10/10 05:57:19;;;;;;;10.32;6.13;;;11.50;99.90;;;;;;6164363;23;20294;-77
2022/10/10 05:59:45;;;;;;;9.63;6.13;;;11.60;99.90;;;;;;6164795;23;19990;-76
2022/10/10 06:02:12;;;;;;;12.15;6.50;;;11.60;99.90;;;;;;6176554;23;20016;-76
2022/10/10 06:04:38;;;;;;;11.15;6.80;;;11.70;99.90;;;;;;6193247;23;19997;-76
2022/10/10 06:07:04;;;;;;;12.15;6.75;;;11.80;99.90;;;;;;6194658;23;20053;-76
2022/10/10 06:09:30;;;;;;;11.75;6.47;;;11.80;99.90;;;;;;6193819;23;20019;-79
2022/10/10 06:11:55;;;;;;;11.45;6.70;;;11.80;99.90;;;;;;6191627;23;20005;-78
2022/10/10 06:14:21;;;;;;;10.75;6.93;;;11.80;99.90;;;;;;6192768;23;20160;-80
2022/10/10 06:16:47;;;;;;;10.40;7.07;;;11.80;99.90;;;;;;6191618;23;20059;-78
2022/10/10 06:19:13;;;;;;;10.27;6.57;;;11.80;99.90;;;;;;6193180;23;20016;-79
2022/10/10 06:21:38;;;;;;;11.52;6.95;;;11.90;99.90;;;;;;6191138;23;19997;-79
2022/10/10 06:24:09;;;;;;;13.82;7.22;;;11.90;99.90;;;;;;6192928;23;20005;-79
2022/10/10 06:26:35;;;;;;;9.35;6.60;;;11.90;99.90;;;;;;6190963;23;20125;-78
2022/10/10 06:29:04;;;;;;;13.70;6.82;;;11.90;99.90;;;;;;6191665;23;20001;-80
2022/10/10 06:31:33;;;;;;;11.00;7.32;;;12.00;99.90;;;;;;6192566;23;20104;-79
2022/10/10 06:33:58;;;;;;;12.40;6.85;;;12.10;99.90;;;;;;6192421;23;20016;-79
2022/10/10 06:36:24;;;;;;;12.77;6.32;;;12.10;99.90;;;;;;6192418;23;20326;-78
2022/10/10 06:38:50;;;;;;;14.32;6.80;;;12.20;99.90;;;;;;6166615;23;20013;-80
2022/10/10 06:41:16;;;;;;;9.45;6.50;;;12.30;99.90;;;;;;6166951;23;20020;-78
2022/10/10 06:43:41;;;;;;;11.85;6.35;;;12.40;99.90;;;;;;6190933;23;20065;-80
2022/10/10 06:46:08;;;;;;;10.48;5.95;;;12.40;99.90;;;;;;6191757;23;20195;-80
2022/10/10 06:48:34;;;;;;;10.15;6.57;;;12.40;99.90;;;;;;6190620;23;20008;-79
2022/10/10 06:51:25;;;;;;;12.40;6.60;;;12.40;99.90;;;;;;6191772;23;20017;-80
2022/10/10 06:53:51;;;;;;;12.52;6.90;;;12.40;99.90;;;;;;6193262;23;20005;-78
2022/10/10 06:56:20;;;;;;;10.38;6.22;;;12.40;99.90;;;;;;6191016;23;20005;-81
2022/10/10 06:59:06;;;;;;;10.02;6.28;;;12.40;99.90;;;;;;6167072;23;20320;-79
2022/10/10 07:01:39;;;;;;;11.32;6.63;;;12.40;99.90;;;;;;6190406;23;20040;-81
2022/10/10 07:04:15;;;;;;;11.10;6.15;;;12.50;99.90;;;;;;6191901;23;19997;-78
2022/10/10 07:06:43;;;;;;;11.02;6.32;;;12.70;99.90;;;;;;6166215;23;20116;-80
2022/10/10 07:09:09;;;;;;;;;;;12.80;99.90;;;;;;6195175;23;20009;-77
2022/10/10 07:11:35;;;;;;;10.73;6.10;;;12.80;99.90;;;;;;6194281;23;19922;-77
2022/10/10 07:14:00;;;;;;;10.85;6.00;;;12.80;99.90;;;;;;6194751;23;20060;-80
2022/10/10 07:16:27;;;;;;;14.80;7.18;;;12.80;99.90;;;;;;6190986;23;20029;-78
2022/10/10 07:18:55;;;;;;;14.07;6.32;;;12.80;99.90;;;;;;6168400;23;19989;-77
2022/10/10 07:21:24;;;;;;;9.60;6.38;;;12.90;99.90;;;;;;6192146;23;20160;-79
2022/10/10 07:23:50;;;;;;;12.70;7.50;;;12.90;99.90;;;;;;6191301;23;20302;-80
2022/10/10 07:26:21;;;;;;;10.43;6.40;;;13.00;99.90;;;;;;6192173;23;20065;-80
2022/10/10 07:28:48;;;;;;;12.95;6.78;;;13.10;99.90;;;;;;6191167;23;20009;-79
2022/10/10 07:31:14;;;;;;;12.45;6.35;;;13.20;99.90;;;;;;6190887;23;20207;-80
2022/10/10 07:33:47;;;;;;;12.02;6.22;;;13.30;99.90;;;;;;6190433;23;20202;-78
2022/10/10 07:36:28;;;;;;;10.75;6.50;;;13.40;99.90;;;;;;6190769;23;20005;-80
2022/10/10 07:38:56;;;;;;;10.02;6.50;;;13.60;99.90;;;;;;6191547;23;20056;-78
2022/10/10 07:41:22;;;;;;;;;;;13.60;99.90;;;;;;6192525;23;20204;-78
2022/10/10 07:44:02;;;;;;;12.23;6.82;;;13.60;99.90;;;;;;6214967;23;19904;-78
2022/10/10 07:46:30;;;;;;;15.00;7.30;;;13.70;99.90;;;;;;6192251;23;20360;-77
2022/10/10 07:48:56;;;;;;;11.70;6.50;;;13.70;99.90;;;;;;6192460;23;20009;-79
2022/10/10 07:51:21;;;;;;;15.65;6.63;;;13.70;99.90;;;;;;6190516;23;20310;-77
2022/10/10 07:54:08;;;;;;;10.15;6.28;;;13.70;99.90;;;;;;6191410;23;20021;-79
2022/10/10 07:56:34;;;;;;;16.33;7.00;;;13.80;99.90;;;;;;6165557;23;20024;-79
2022/10/10 07:58:59;;;;;;;17.88;6.93;;;13.90;99.90;;;;;;6190779;23;20328;-78
2022/10/10 08:01:25;;;;;;;13.43;7.20;;;14.00;99.90;;;;;;6165029;23;20313;-80
2022/10/10 08:03:51;;;;;;;12.10;6.63;;;14.20;99.90;;;;;;6191194;23;20282;-77
2022/10/10 08:06:17;;;;;;;13.27;6.10;;;14.30;99.90;;;;;;6191736;23;20064;-77
2022/10/10 08:08:46;;;;;;;10.68;6.38;;;14.60;99.90;;;;;;6165117;23;20017;-79
2022/10/10 08:11:12;;;;;;;15.25;6.57;;;14.70;99.90;;;;;;6190379;23;20093;-78
2022/10/10 08:13:41;;;;;;;12.25;6.25;;;14.90;99.90;;;;;;6165139;23;20013;-79
2022/10/10 08:16:07;;;;;;;9.70;5.60;;;14.90;99.90;;;;;;6190852;23;19996;-78
2022/10/10 08:18:33;;;;;;;10.82;5.90;;;15.10;99.90;;;;;;6190135;23;20023;-80
2022/10/10 08:21:04;;;;;;;13.00;5.93;;;15.20;99.90;;;;;;6192041;23;20275;-81
2022/10/10 08:23:30;;;;;;;10.85;5.45;;;15.30;99.90;;;;;;6190077;23;20007;-78
2022/10/10 08:26:01;;;;;;;9.43;5.18;;;15.50;99.90;;;;;;6190621;23;19993;-79
2022/10/10 08:28:27;;;;;;;6.60;4.30;;;15.60;99.90;;;;;;6189753;23;20012;-79
2022/10/10 08:30:54;;;;;;;12.20;5.68;;;15.80;99.90;;;;;;6191815;23;20044;-78
2022/10/10 08:33:20;;;;;;;10.82;5.20;;;15.90;99.90;;;;;;6191582;23;20025;-79
2022/10/10 08:35:46;;;;;;;9.88;4.95;;;16.00;99.90;;;;;;6191538;23;20061;-81
2022/10/10 08:38:18;;;;;;;14.18;5.90;;;16.00;99.90;;;;;;6165476;23;20008;-80
2022/10/10 08:40:55;;;;;;;10.32;5.65;;;16.10;99.90;;;;;;6190340;23;20258;-79
2022/10/10 08:44:09;;;;;;;12.35;5.47;;;16.20;99.90;;;;;;6165508;23;20336;-81
2022/10/10 08:46:59;;;;;;;12.77;4.97;;;16.40;99.90;;;;;;6183440;23;20032;-79
2022/10/10 08:49:52;;;;;;;11.00;5.13;;;16.60;99.90;;;;;;6164953;23;20005;-82
2022/10/10 08:52:55;;;;;;;9.55;5.10;;;16.70;99.90;;;;;;6190328;23;20020;-81
2022/10/10 09:14:08;;;;;;;8.07;4.22;;;18.10;99.90;;;;;;6132211;23;20410;-83
2022/10/10 09:17:05;;;;;;;9.23;4.50;;;18.20;99.90;;;;;;6222374;23;20194;-81
2022/10/10 09:19:54;;;;;;;10.48;4.88;;;18.30;99.90;;;;;;6221505;23;20001;-83
2022/10/10 09:22:25;;;;;;;12.65;4.65;;;18.30;99.90;;;;;;6221964;23;20324;-78
2022/10/10 09:25:15;;;;;;;8.82;4.63;;;18.50;99.90;;;;;;6194596;23;20004;-78
2022/10/10 09:27:46;;;;;;;16.13;5.07;;;18.80;99.90;;;;;;6195336;23;20033;-78
2022/10/10 09:30:18;;;;;;;8.98;4.30;;;19.00;99.90;;;;;;6170655;23;20013;-79
2022/10/10 09:33:03;;;;;;;9.73;4.30;;;19.10;99.90;;;;;;6196616;23;20008;-78
2022/10/10 09:35:39;;;;;;;9.85;4.55;;;19.10;99.90;;;;;;6199409;23;20008;-80
2022/10/10 09:38:36;;;;;;;8.80;4.20;;;19.10;99.90;;;;;;6223468;23;20235;-79
2022/10/10 09:41:39;;;;;;;11.93;4.10;;;18.90;99.90;;;;;;6172952;23;20218;-78
2022/10/10 09:44:10;;;;;;;7.00;4.28;;;18.90;99.90;;;;;;6212636;23;20025;-77
2022/10/10 09:46:36;;;;;;;12.02;3.85;;;18.90;99.90;;;;;;6223207;23;20058;-82
2022/10/10 09:49:05;;;;;;;12.60;4.40;;;19.10;99.90;;;;;;6172415;23;20016;-80
2022/10/10 09:51:31;;;;;;;11.60;4.40;;;19.30;99.90;;;;;;6223153;23;20235;-79
2022/10/10 09:53:58;;;;;;;9.20;3.85;;;19.60;99.90;;;;;;6197200;23;20011;-81
2022/10/10 09:56:30;;;;;;;9.52;3.95;;;19.90;99.90;;;;;;6223541;23;20230;-82
2022/10/10 09:58:56;;;;;;;8.85;3.17;;;20.10;99.90;;;;;;6223460;23;20008;-80
2022/10/10 10:01:28;;;;;;;9.93;3.75;;;20.10;99.90;;;;;;6229292;23;20047;-79
2022/10/10 10:04:06;;;;;;;8.25;3.70;;;20.30;99.90;;;;;;6201956;23;20180;-78
2022/10/10 10:06:32;;;;;;;9.75;3.83;;;20.50;99.90;;;;;;6226545;23;20000;-79
2022/10/10 10:09:06;;;;;;;7.13;3.95;;;20.60;99.90;;;;;;6228068;23;20020;-81
2022/10/10 10:11:40;;;;;;;9.85;4.53;;;20.70;99.70;;;;;;6226475;23;20091;-82
2022/10/10 10:14:33;;;;;;;7.88;4.10;;;20.70;99.40;;;;;;6254543;23;20036;-78
2022/10/10 10:17:06;;;;;;;9.32;3.70;;;20.80;99.30;;;;;;6255800;23;20075;-77
2022/10/10 10:19:45;;;;;;;8.27;4.13;;;21.00;99.10;;;;;;6256143;23;20047;-78
2022/10/10 10:22:38;;;;;;;7.13;3.97;;;21.00;98.90;;;;;;6255696;23;20001;-78
2022/10/10 10:25:29;;;;;;;9.15;4.45;;;21.10;98.70;;;;;;6252514;23;20211;-79
2022/10/10 10:28:10;;;;;;;10.38;4.78;;;21.60;98.30;;;;;;6227080;23;20251;-77
2022/10/10 10:30:55;;;;;;;8.70;4.38;;;21.90;97.50;;;;;;6253620;23;20004;-80
2022/10/10 10:33:39;;;;;;;7.95;3.85;;;22.30;96.90;;;;;;6254154;23;20072;-79
2022/10/10 10:36:26;;;;;;;7.53;3.47;;;22.50;96.00;;;;;;6251643;23;20038;-79
2022/10/10 10:39:24;;;;;;;7.32;3.22;;;22.30;96.20;;;;;;6225719;23;20185;-78
2022/10/10 10:42:27;;;;;;;5.32;3.33;;;22.50;96.20;;;;;;6225447;23;20027;-79
2022/10/10 10:45:15;;;;;;;5.68;3.17;;;22.80;95.60;;;;;;6225340;23;20059;-80
2022/10/10 10:47:44;;;;;;;7.68;2.92;;;22.70;95.30;;;;;;6252997;23;20016;-78
2022/10/10 10:50:22;;;;;;;;;;;22.70;95.20;;;;;;6228148;23;20079;-78
2022/10/10 10:56:39;;;;;;;6.07;2.35;;;22.50;95.50;;;;;;6227701;23;20000;-78
2022/10/10 10:59:31;;;;;;;9.27;3.50;;;22.30;95.60;;;;;;6219504;23;20016;-82
2022/10/10 11:02:38;;;;;;;8.43;3.80;;;22.20;95.80;;;;;;6251987;23;20431;-80
2022/10/10 11:05:34;;;;;;;8.90;4.10;;;21.80;96.30;;;;;;6227065;23;20356;-79
2022/10/10 11:08:31;;;;;;;10.52;2.90;;;21.70;96.70;;;;;;6225879;23;20004;-78
2022/10/10 11:11:31;;;;;;;5.70;3.10;;;22.20;96.20;;;;;;6251549;23;20262;-77
2022/10/10 11:14:37;;;;;;;7.82;2.63;;;23.10;95.20;;;;;;6225782;23;20000;-78
2022/10/10 11:17:29;;;;;;;8.07;2.85;;;23.90;93.70;;;;;;6226200;23;20251;-80
2022/10/10 11:20:01;;;;;;;6.45;2.75;;;24.40;92.80;;;;;;6226128;23;20344;-79
2022/10/10 11:22:34;;;;;;;5.63;2.58;;;24.80;92.00;;;;;;6253136;23;20031;-80
2022/10/10 11:25:06;;;;;;;8.20;2.50;;;25.40;91.10;;;;;;6226497;23;20023;-78
2022/10/10 11:27:41;;;;;;;5.13;2.00;;;26.10;89.90;;;;;;6251827;23;20000;-79
2022/10/10 11:30:14;;;;;;;7.32;2.30;;;26.40;88.20;;;;;;6253154;23;20067;-78
2022/10/10 11:32:45;;;;;;;9.38;2.85;;;27.10;86.50;;;;;;6252812;23;20050;-81
2022/10/10 11:35:34;;;;;;;6.35;2.42;;;27.60;83.70;;;;;;6226959;23;20007;-79
2022/10/10 11:38:22;;;;;;;6.75;3.00;;;28.00;82.20;;;;;;6183711;23;20012;-81
2022/10/10 11:41:34;;;;;;;6.05;2.40;;;28.00;80.60;;;;;;6225842;23;20008;-79
2022/10/10 11:44:17;;;;;;;7.43;2.40;;;27.70;81.20;;;;;;6225725;23;20008;-79
2022/10/10 11:46:57;;;;;;;7.60;2.75;;;27.90;80.40;;;;;;6225219;23;20007;-79
2022/10/10 11:49:51;;;;;;;6.43;2.25;;;28.60;79.30;;;;;;6250928;23;20010;-80
2022/10/10 11:52:32;;;;;;;6.88;2.45;;;28.90;77.80;;;;;;6251391;23;20024;-79
2022/10/10 11:55:27;;;;;;;6.03;2.83;;;29.60;76.60;;;;;;6252580;23;20006;-82
2022/10/10 11:58:47;;;;;;;6.63;3.00;;;29.80;75.30;;;;;;6231773;23;20015;-78
2022/10/10 12:02:06;;;;;;;5.68;2.47;;;30.50;73.40;;;;;;6253163;23;20056;-79
2022/10/10 12:04:37;;;;;;;4.43;2.00;;;31.20;71.70;;;;;;6252083;23;20046;-80
2022/10/10 12:07:37;;;;;;;7.10;2.08;;;31.80;69.60;;;;;;6251203;23;20031;-78
2022/10/10 12:10:25;;;;;;;5.25;2.05;;;31.60;69.80;;;;;;6169332;23;20012;-81
2022/10/10 12:12:53;;;;;;;;;;;32.40;68.50;;;;;;6226356;23;20003;-78
2022/10/10 12:15:47;;;;;;;5.65;2.20;;;32.10;67.60;;;;;;6220937;23;20006;-80
2022/10/10 12:18:29;;;;;;;4.97;2.25;;;31.70;67.90;;;;;;6222328;23;20030;-79
2022/10/10 12:21:05;;;;;;;6.78;2.28;;;32.30;66.90;;;;;;6221571;23;20271;-77
2022/10/10 12:23:39;;;;;;;7.60;1.70;;;33.00;65.50;;;;;;6221952;23;20055;-78
2022/10/10 12:26:05;;;;;;;5.82;1.60;;;34.20;62.80;;;;;;6220431;23;20056;-79
2022/10/10 12:29:08;;;;;;;6.00;1.52;;;35.00;59.90;;;;;;6221927;23;20045;-79
2022/10/10 12:31:40;;;;;;;8.48;1.92;;;34.80;58.40;;;;;;6221185;23;20011;-79
2022/10/10 12:34:14;;;;;;;7.88;2.25;;;33.40;59.40;;;;;;6222061;23;20001;-77
2022/10/10 12:36:39;;;;;;;6.53;1.80;;;32.50;61.60;;;;;;6220225;23;20016;-78
2022/10/10 12:39:11;;;;;;;5.53;1.63;;;32.30;63.30;;;;;;6222291;23;20005;-79
2022/10/10 12:41:55;;;;;;;7.05;2.20;;;33.20;61.50;;;;;;6221665;23;20000;-79
2022/10/10 12:44:24;;;;;;;6.70;2.10;;;31.90;62.80;;;;;;6220119;23;20000;-78
2022/10/10 12:47:29;;;;;;;6.95;1.67;;;32.40;62.70;;;;;;6219805;23;20194;-80
2022/10/10 12:50:13;;;;;;;7.20;1.95;;;31.40;63.60;;;;;;6219461;23;20093;-78
2022/10/10 12:52:58;;;;;;;5.50;2.13;;;30.50;65.40;;;;;;6208031;23;20337;-80
2022/10/10 12:55:31;;;;;;;10.02;2.60;;;29.40;66.70;;;;;;6221857;23;20050;-77
2022/10/10 12:58:00;;;;;;;9.40;2.10;;;28.40;68.90;;;;;;6221015;23;20194;-78
2022/10/10 13:00:41;;;;;;;9.00;2.35;;;27.90;70.10;;;;;;6221249;23;20013;-80
2022/10/10 13:03:14;;;;;;;8.85;2.53;;;27.40;71.10;;;;;;6221874;23;20005;-78
2022/10/10 13:05:40;;;;;;;9.40;2.50;;;26.80;72.00;;;;;;6222338;23;20286;-78
2022/10/10 13:08:25;;;;;;;11.30;2.28;;;26.40;73.50;;;;;;6222532;23;19997;-78
2022/10/10 13:11:14;;;;;;;8.57;2.30;;;26.10;74.30;;;;;;6226932;23;20000;-79
2022/10/10 13:13:52;;;;;;;8.73;2.90;;;25.70;75.10;;;;;;6229205;23;20008;-78
2022/10/10 13:16:20;;;;;;;8.98;2.50;;;25.50;76.10;;;;;;6255262;23;20000;-75
2022/10/10 13:18:52;;;;;;;6.10;2.15;;;25.20;76.00;;;;;;6254412;23;20333;-78
2022/10/10 13:21:28;;;;;;;6.60;1.80;;;24.90;77.00;;;;;;6254215;23;20191;-77
2022/10/10 13:24:00;;;;;;;6.95;2.13;;;24.50;77.60;;;;;;6226663;23;20193;-78
2022/10/10 13:26:29;;;;;;;5.15;1.85;;;24.20;78.00;;;;;;6252305;23;20515;-75
2022/10/10 13:28:58;;;;;;;11.82;2.47;;;24.10;80.20;;;;;;6252157;23;20448;-76
2022/10/10 13:31:29;;;;;;;9.55;2.10;;;24.10;79.40;;;;;;6228236;23;20024;-75
2022/10/10 13:34:05;;;;;;;7.28;2.03;;;24.10;79.90;;;;;;6252913;23;20278;-74
2022/10/10 13:36:32;;;;;;;7.03;2.63;;;24.70;81.80;;;;;;6254200;23;20023;-74
2022/10/10 13:38:58;;;;;;;7.82;2.45;;;26.30;78.10;;;;;;6253634;23;20011;-75
2022/10/10 13:41:26;;;;;;;9.57;2.65;;;27.80;73.30;;;;;;6253667;23;20338;-74
2022/10/10 13:43:52;;;;;;;10.40;2.58;;;30.10;69.60;;;;;;6253852;23;20008;-73
2022/10/10 13:46:29;;;;;;;10.05;4.22;;;31.20;65.00;;;;;;6253709;23;20003;-73
2022/10/10 13:48:55;;;;;;;13.82;4.40;;;30.80;65.20;;;;;;6253346;23;20008;-75
2022/10/10 13:51:43;;;;;;;7.22;1.95;;;32.70;63.10;;;;;;6254503;23;20000;-75
2022/10/10 13:54:44;;;;;;;8.27;3.05;;;34.80;60.00;;;;;;6252135;23;20008;-74
2022/10/10 13:57:15;;;;;;;7.57;2.30;;;34.60;58.20;;;;;;6253511;23;20004;-75
2022/10/10 13:59:42;;;;;;;7.03;2.47;;;33.60;60.60;;;;;;6253595;23;20055;-75
2022/10/10 14:02:13;;;;;;;23.43;19.70;;;34.60;58.30;;;;;;6253573;23;20031;-75
2022/10/10 14:04:46;;;;;;;6.47;2.63;;;35.90;57.50;;;;;;6252616;23;20166;-76
2022/10/10 14:07:28;;;;;;;8.10;1.90;;;36.90;55.40;;;;;;6226524;23;20008;-75
2022/10/10 14:09:58;;;;;;;7.72;1.83;;;37.60;54.50;;;;;;6252937;23;20345;-75
2022/10/10 14:12:37;;;;;;;7.05;2.15;;;38.50;54.20;;;;;;6226947;23;20051;-74
2022/10/10 14:15:04;;;;;;;8.80;2.55;;;38.80;52.40;;;;;;6226337;23;24416;-74
2022/10/10 14:17:30;;;;;;;6.97;1.98;;;38.50;52.00;;;;;;6252523;23;20363;-74
2022/10/10 14:19:56;;;;;;;8.60;2.20;;;38.80;51.60;;;;;;6253199;23;20008;-75
2022/10/10 14:22:22;;;;;;;6.28;2.42;;;38.10;51.60;;;;;;6253243;23;20004;-74
2022/10/10 14:24:48;;;;;;;6.65;1.85;;;38.30;52.10;;;;;;6225905;23;20193;-74
2022/10/10 14:27:26;;;;;;;7.25;2.13;;;38.00;52.10;;;;;;6253393;23;20289;-73
2022/10/10 14:29:57;;;;;;;6.93;1.83;;;37.80;51.30;;;;;;6252873;23;20610;-74
2022/10/10 14:32:24;;;;;;;5.18;1.90;;;37.70;51.50;;;;;;6226631;23;20007;-73
2022/10/10 14:34:49;;;;;;;9.30;2.80;;;36.80;52.20;;;;;;6252852;23;20000;-76
2022/10/10 14:37:19;;;;;;;12.15;6.45;;;36.10;52.90;;;;;;6252091;23;20036;-76
2022/10/10 14:39:45;;;;;;;7.32;3.17;;;35.80;53.20;;;;;;6252868;23;20218;-76
2022/10/10 14:42:12;;;;;;;6.90;2.25;;;35.30;53.40;;;;;;6253445;23;19992;-77
2022/10/10 14:44:38;;;;;;;6.13;1.90;;;35.20;53.90;;;;;;6252988;23;20004;-77
2022/10/10 14:47:04;;;;;;;8.20;1.77;;;35.60;53.70;;;;;;6252961;23;20015;-77
2022/10/10 14:49:29;;;;;;;7.95;2.55;;;35.40;53.30;;;;;;6253132;23;20218;-77
2022/10/10 14:51:55;;;;;;;10.38;2.80;;;34.90;54.30;;;;;;6252606;23;20242;-78
2022/10/10 14:54:21;;;;;;;5.78;2.20;;;33.90;54.90;;;;;;6253509;23;20043;-77
2022/10/10 14:56:46;;;;;;;6.45;2.10;;;32.90;56.10;;;;;;6252040;23;20247;-77
2022/10/10 14:59:19;;;;;;;6.60;1.85;;;31.80;58.20;;;;;;6253137;23;20011;-76
2022/10/10 15:01:46;;;;;;;8.57;3.03;;;30.90;59.40;;;;;;6252273;23;20000;-74
2022/10/10 15:04:12;;;;;;;16.42;7.78;;;30.20;61.20;;;;;;6252621;23;20000;-72
2022/10/10 15:06:38;;;;;;;9.15;3.85;;;29.50;62.30;;;;;;6253637;23;20008;-72
2022/10/10 15:09:05;;;;;;;10.30;2.47;;;28.90;61.80;;;;;;6253112;23;20066;-73
2022/10/10 15:11:31;;;;;;;7.25;2.10;;;28.20;62.90;;;;;;6252464;23;20000;-73
2022/10/10 15:13:56;;;;;;;11.68;3.28;;;28.00;65.90;;;;;;6252270;23;20023;-73
2022/10/10 15:16:22;;;;;;;10.63;3.33;;;28.60;64.60;;;;;;6253090;23;20001;-73
2022/10/10 15:18:48;;;;;;;15.07;8.70;;;29.40;64.50;;;;;;6252367;23;20060;-73
2022/10/10 15:21:14;;;;;;;12.68;3.33;;;30.10;61.50;;;;;;6252472;23;20000;-73
2022/10/10 15:23:40;;;;;;;9.98;2.67;;;31.00;62.40;;;;;;6252266;23;20016;-74
2022/10/10 15:26:06;;;;;;;9.43;2.10;;;31.90;60.00;;;;;;6252689;23;20000;-74
2022/10/10 15:28:32;;;;;;;10.30;3.33;;;32.70;57.60;;;;;;6252451;22;20501;-74
2022/10/10 15:30:59;;;;;;;10.30;4.22;;;32.60;57.30;;;;;;6253570;23;20198;-74
2022/10/10 15:33:25;;;;;;;11.88;3.42;;;31.90;58.30;;;;;;6253719;23;20000;-74
2022/10/10 15:35:57;;;;;;;12.68;2.70;;;32.10;60.00;;;;;;6250953;23;20000;-74
2022/10/10 15:38:23;;;;;;;11.73;2.40;;;32.60;57.50;;;;;;6252838;23;20011;-74
2022/10/10 15:41:01;;;;;;;9.77;2.45;;;33.10;56.80;;;;;;6251915;23;20162;-74
2022/10/10 15:43:27;;;;;;;10.68;2.70;;;33.00;57.00;;;;;;6225960;23;20290;-73
2022/10/10 15:45:55;;;;;;;11.05;3.05;;;32.80;57.00;;;;;;6251808;23;20283;-73
2022/10/10 15:48:21;;;;;;;23.93;13.03;;;32.30;57.10;;;;;;6225949;23;20015;-74
2022/10/10 15:50:47;;;;;;;10.32;3.58;;;31.60;58.30;;;;;;6251792;23;20376;-74
2022/10/10 15:53:13;;;;;;;11.57;2.80;;;31.40;59.40;;;;;;6252754;23;20007;-74
2022/10/10 15:55:44;;;;;;;10.43;3.50;;;31.10;60.00;;;;;;6252835;23;20042;-74
2022/10/10 15:58:10;;;;;;;15.77;3.42;;;30.70;59.70;;;;;;6225972;23;20020;-74
2022/10/10 16:00:38;;;;;;;11.43;2.92;;;30.10;61.00;;;;;;6252781;23;20034;-75
2022/10/10 16:03:03;;;;;;;10.95;3.28;;;29.30;60.70;;;;;;6252092;23;20007;-75
2022/10/10 16:05:31;;;;;;;11.68;3.15;;;28.50;63.70;;;;;;6252558;23;20032;-74
2022/10/10 16:07:57;;;;;;;9.43;3.50;;;27.90;65.30;;;;;;6252340;23;20004;-74
2022/10/10 16:10:23;;;;;;;10.82;3.13;;;27.20;65.60;;;;;;6253110;23;20170;-74
2022/10/10 16:12:48;;;;;;;9.32;2.88;;;26.60;67.50;;;;;;6252340;23;20055;-74
2022/10/10 16:15:15;;;;;;;19.13;9.95;;;26.10;67.70;;;;;;6252357;23;20318;-74
2022/10/10 16:17:41;;;;;;;9.02;4.03;;;25.70;69.10;;;;;;6252296;23;20006;-74
2022/10/10 16:20:07;;;;;;;12.95;7.53;;;25.40;70.50;;;;;;6252417;23;19996;-74
2022/10/10 16:22:33;;;;;;;12.73;4.93;;;25.20;71.80;;;;;;6252454;23;20095;-74
2022/10/10 16:24:59;;;;;;;10.40;3.53;;;24.90;73.10;;;;;;6251698;23;20004;-74
2022/10/10 16:27:25;;;;;;;7.70;2.80;;;24.70;72.10;;;;;;6252102;23;20282;-74
2022/10/10 16:29:50;;;;;;;10.15;3.60;;;24.10;73.90;;;;;;6249789;23;20000;-73
2022/10/10 16:32:16;;;;;;;11.05;4.03;;;23.70;76.00;;;;;;6252240;23;20043;-74
2022/10/10 16:34:42;;;;;;;13.32;4.25;;;23.40;78.10;;;;;;6251370;23;20053;-75
2022/10/10 16:37:07;;;;;;;10.70;3.78;;;23.10;81.20;;;;;;6252205;23;20011;-74
2022/10/10 16:39:33;;;;;;;11.85;4.28;;;22.80;80.70;;;;;;6252551;23;19996;-75
2022/10/10 16:41:59;;;;;;;10.52;4.10;;;22.60;81.60;;;;;;6251589;23;20221;-75
2022/10/10 16:44:24;;;;;;;9.00;3.25;;;22.30;82.50;;;;;;6252596;23;20001;-74
2022/10/10 16:46:50;;;;;;;8.80;3.00;;;22.20;83.90;;;;;;6251826;23;20008;-75
2022/10/10 16:49:19;;;;;;;9.75;2.97;;;22.00;84.80;;;;;;6225646;23;20016;-75
2022/10/10 16:51:45;;;;;;;;;;;21.80;84.30;;;;;;6225880;23;20055;-74
2022/10/10 16:54:10;;;;;;;15.18;3.33;;;21.70;85.70;;;;;;6252551;23;19946;-74
2022/10/10 16:56:37;;;;;;;11.80;3.05;;;21.60;85.70;;;;;;6252613;23;20000;-74
2022/10/10 16:59:03;;;;;;;12.25;3.17;;;21.40;86.30;;;;;;6227815;23;20190;-79
2022/10/10 17:01:29;;;;;;;6.88;3.55;;;21.30;86.80;;;;;;6254850;23;20004;-80
2022/10/10 17:03:58;;;;;;;8.25;3.35;;;21.10;87.40;;;;;;6251093;23;20008;-79
2022/10/10 17:06:24;;;;;;;9.98;3.78;;;21.00;88.00;;;;;;6200189;23;20051;-81
2022/10/10 17:08:52;;;;;;;11.10;3.58;;;20.70;88.00;;;;;;6250186;23;20063;-82
2022/10/10 17:11:19;;;;;;;11.10;3.90;;;20.50;88.90;;;;;;6225588;23;20011;-79
2022/10/10 17:13:45;;;;;;;8.75;3.63;;;20.20;90.10;;;;;;6225252;23;20050;-80
2022/10/10 17:16:15;;;;;;;9.25;3.80;;;20.20;90.60;;;;;;6200787;23;20217;-80
2022/10/10 17:18:42;;;;;;;14.27;3.92;;;20.00;90.70;;;;;;6252387;23;20004;-80
2022/10/10 17:21:14;;;;;;;11.55;3.53;;;20.10;90.80;;;;;;6225857;23;20008;-79
2022/10/10 17:23:40;;;;;;;14.02;3.88;;;20.00;90.80;;;;;;6201211;23;20215;-82
2022/10/10 17:26:08;;;;;;;12.20;3.47;;;19.80;90.50;;;;;;6225213;23;20151;-79
2022/10/10 17:28:35;;;;;;;10.77;3.45;;;19.60;91.10;;;;;;6227413;23;20393;-79
2022/10/10 17:31:08;;;;;;;17.40;10.30;;;19.60;91.50;;;;;;6251597;23;19992;-76
2022/10/10 17:33:36;;;;;;;20.20;13.20;;;19.50;91.40;;;;;;6252111;23;20045;-77
2022/10/10 17:36:06;;;;;;;12.15;5.30;;;19.40;91.70;;;;;;6251954;23;20000;-76
2022/10/10 17:38:32;;;;;;;10.57;4.32;;;19.30;92.20;;;;;;6252221;23;20031;-77
2022/10/10 17:40:58;;;;;;;13.55;4.78;;;19.20;92.50;;;;;;6252199;23;20019;-78
2022/10/10 17:43:24;;;;;;;14.40;6.35;;;19.30;92.50;;;;;;6226017;23;20167;-76
2022/10/10 17:45:50;;;;;;;13.10;5.65;;;19.20;92.90;;;;;;6251892;23;20205;-77
2022/10/10 17:48:16;;;;;;;16.48;5.22;;;19.20;92.60;;;;;;6252565;23;19996;-78
2022/10/10 17:50:42;;;;;;;13.13;4.35;;;19.20;92.60;;;;;;6225902;23;20089;-76
2022/10/10 17:53:08;;;;;;;13.60;4.00;;;19.10;92.50;;;;;;6253771;23;20186;-77
2022/10/10 17:55:33;;;;;;;17.85;9.85;;;19.00;92.60;;;;;;6254280;23;20006;-76
2022/10/10 17:57:59;;;;;;;17.55;9.50;;;18.90;92.90;;;;;;6201908;23;20008;-77
2022/10/10 18:00:25;;;;;;;13.77;5.38;;;18.90;93.10;;;;;;6253851;23;19988;-77
2022/10/10 18:02:51;;;;;;;16.65;6.28;;;18.90;93.00;;;;;;6226835;23;20019;-77
2022/10/10 18:05:17;;;;;;;13.73;4.15;;;18.90;93.00;;;;;;6227008;23;20110;-77
2022/10/10 18:07:44;;;;;;;12.30;4.05;;;18.90;92.90;;;;;;6254064;23;20008;-76
2022/10/10 18:10:09;;;;;;;12.02;4.65;;;18.80;93.00;;;;;;6254767;23;20000;-75
2022/10/10 18:12:35;;;;;;;11.00;4.75;;;18.70;93.80;;;;;;6254471;23;20308;-78
2022/10/10 18:15:02;;;;;;;13.85;4.53;;;18.50;94.20;;;;;;6254258;23;20008;-79
2022/10/10 18:17:28;;;;;;;12.20;4.57;;;18.40;95.10;;;;;;6227890;23;20038;-78
2022/10/10 18:19:54;;;;;;;11.32;4.38;;;18.40;95.60;;;;;;6253658;23;20000;-77
2022/10/10 18:22:19;;;;;;;10.57;4.28;;;18.50;95.70;;;;;;6252728;23;20294;-78
2022/10/10 18:24:45;;;;;;;14.75;5.32;;;18.60;95.30;;;;;;6253831;23;19999;-77
2022/10/10 18:27:11;;;;;;;12.88;4.80;;;18.50;94.90;;;;;;6254293;23;20015;-77
2022/10/10 18:29:37;;;;;;;13.65;3.95;;;18.50;95.30;;;;;;6226824;23;20282;-79
2022/10/10 18:32:03;;;;;;;9.95;2.47;;;18.40;97.00;;;;;;6252918;23;20000;-77
2022/10/10 18:34:29;;;;;;;6.10;1.85;;;16.20;99.90;;;;;;6226753;23;20044;-74